Time;durP1;ratioP1;P1;durP2;ratioP2;P2;SDS_P1;SDS_P2;PMS_P1;PMS_P2;Temp;Humidity;BMP_temperature;BMP_pressure;BME280_temperature;BME280_humidity;BME280_pressure;Samples;Min_cycle;Max_cycle;Signal;HPM_P1;HPM_P2
2021/03/30 00:00:22;;;;;;;5.07;2.97;;;12.80;60.20;;;;;;4989078;28;20026;-64
2021/03/30 00:02:49;;;;;;;3.50;2.42;;;12.80;61.40;;;;;;4982779;28;20038;-63
2021/03/30 00:05:15;;;;;;;4.05;2.47;;;12.80;61.70;;;;;;4983988;28;20769;-64
2021/03/30 00:07:41;;;;;;;3.50;2.22;;;12.70;62.20;;;;;;4989409;28;20057;-64
2021/03/30 00:10:11;;;;;;;4.28;2.70;;;12.60;62.90;;;;;;4987584;28;20046;-65
2021/03/30 00:12:37;;;;;;;4.57;2.75;;;12.60;63.50;;;;;;4990507;28;20512;-64
2021/03/30 00:15:04;;;;;;;6.88;2.42;;;12.50;63.20;;;;;;4987996;28;20037;-64
2021/03/30 00:17:30;;;;;;;8.00;3.00;;;12.50;63.60;;;;;;4990348;28;20048;-64
2021/03/30 00:19:56;;;;;;;7.70;2.53;;;12.50;63.10;;;;;;4989270;28;20822;-64
2021/03/30 00:22:22;;;;;;;4.68;2.88;;;12.40;63.30;;;;;;4989286;28;20032;-64
2021/03/30 00:24:47;;;;;;;4.93;2.90;;;12.40;63.40;;;;;;4990414;28;20805;-64
2021/03/30 00:27:13;;;;;;;4.82;2.45;;;12.40;63.80;;;;;;4987979;28;20030;-64
2021/03/30 00:29:46;;;;;;;5.78;2.88;;;12.40;63.50;;;;;;4991067;28;20888;-64
2021/03/30 00:32:15;;;;;;;7.65;2.97;;;12.40;62.90;;;;;;4991082;28;20041;-64
2021/03/30 00:34:41;;;;;;;5.72;2.97;;;12.40;63.00;;;;;;4988770;28;20069;-64
2021/03/30 00:37:06;;;;;;;3.40;2.38;;;12.30;63.20;;;;;;4989260;28;20113;-64
2021/03/30 00:39:32;;;;;;;7.93;3.53;;;12.30;63.20;;;;;;4987489;28;20034;-65
2021/03/30 00:41:58;;;;;;;5.82;3.03;;;12.30;63.40;;;;;;4990781;28;20761;-64
2021/03/30 00:44:24;;;;;;;4.85;2.88;;;12.30;63.30;;;;;;4987198;28;20034;-65
2021/03/30 00:46:51;;;;;;;6.47;3.17;;;12.30;63.10;;;;;;4987282;28;20045;-64
2021/03/30 00:49:19;;;;;;;6.57;3.35;;;12.30;63.30;;;;;;4996843;28;20084;-64
2021/03/30 00:51:47;;;;;;;4.53;2.88;;;12.30;63.00;;;;;;4987374;28;20038;-64
2021/03/30 00:54:31;;;;;;;5.50;2.70;;;12.20;62.50;;;;;;4988640;28;20053;-65
2021/03/30 00:57:06;;;;;;;4.85;3.08;;;12.20;62.10;;;;;;4986630;28;20501;-64
2021/03/30 00:59:31;;;;;;;3.88;2.50;;;12.20;61.80;;;;;;4989127;28;20835;-64
2021/03/30 01:01:58;;;;;;;7.88;3.38;;;12.20;61.60;;;;;;5003877;28;20040;-65
2021/03/30 01:04:25;;;;;;;5.70;3.10;;;12.20;61.50;;;;;;4987777;28;20100;-64
2021/03/30 01:06:51;;;;;;;7.50;3.10;;;12.20;61.60;;;;;;4989284;28;20809;-64
2021/03/30 01:09:57;;;;;;;4.90;3.00;;;12.20;61.20;;;;;;4987766;28;20040;-64
2021/03/30 01:12:34;;;;;;;5.13;3.05;;;12.20;61.30;;;;;;4987291;28;20437;-64
2021/03/30 01:15:21;;;;;;;4.68;2.92;;;12.20;61.40;;;;;;4987266;28;20034;-64
2021/03/30 01:18:28;;;;;;;6.03;3.00;;;12.20;61.20;;;;;;4987949;28;20038;-65
2021/03/30 01:21:12;;;;;;;6.50;3.00;;;12.20;61.20;;;;;;4989781;28;20488;-64
2021/03/30 01:23:47;;;;;;;7.75;3.55;;;12.20;61.10;;;;;;4987710;28;20276;-64
2021/03/30 01:26:24;;;;;;;5.53;2.72;;;12.20;60.90;;;;;;4988011;28;20033;-64
2021/03/30 01:29:14;;;;;;;6.53;3.42;;;12.20;60.80;;;;;;4989430;28;20033;-64
2021/03/30 01:31:42;;;;;;;6.35;3.13;;;12.20;61.50;;;;;;4985469;28;20034;-65
2021/03/30 01:34:11;;;;;;;8.25;3.00;;;12.20;61.20;;;;;;4987865;28;20112;-64
2021/03/30 01:36:41;;;;;;;6.47;3.28;;;12.20;61.80;;;;;;4987904;28;20121;-64
2021/03/30 01:39:12;;;;;;;4.70;3.40;;;12.10;62.40;;;;;;4988351;28;20755;-64
2021/03/30 01:41:42;;;;;;;5.82;3.33;;;12.10;63.10;;;;;;4987070;28;20034;-65
2021/03/30 01:44:09;;;;;;;5.03;2.97;;;12.10;63.20;;;;;;5000180;28;20045;-65
2021/03/30 01:46:35;;;;;;;7.57;3.78;;;12.00;62.50;;;;;;4988146;28;20043;-64
2021/03/30 01:49:02;;;;;;;6.57;3.63;;;12.00;62.20;;;;;;4987399;28;20502;-64
2021/03/30 01:51:29;;;;;;;7.13;3.22;;;12.00;62.00;;;;;;4987112;28;20046;-65
2021/03/30 01:53:56;;;;;;;9.27;3.65;;;12.00;62.90;;;;;;4987581;28;20030;-64
2021/03/30 01:56:22;;;;;;;6.57;3.35;;;11.90;63.20;;;;;;4985546;28;20043;-64
2021/03/30 01:58:50;;;;;;;5.70;3.78;;;11.80;63.70;;;;;;4987277;28;20398;-64
2021/03/30 02:01:16;;;;;;;9.07;3.72;;;11.80;63.90;;;;;;4987658;28;20116;-64
2021/03/30 02:03:43;;;;;;;6.45;3.65;;;11.70;64.20;;;;;;4987162;28;20529;-64
2021/03/30 02:06:10;;;;;;;7.10;3.88;;;11.70;64.50;;;;;;4986961;28;20029;-64
2021/03/30 02:08:37;;;;;;;4.57;2.97;;;11.60;64.70;;;;;;4990835;28;20042;-64
2021/03/30 02:11:03;;;;;;;4.72;3.13;;;11.60;64.80;;;;;;4988798;28;20042;-64
2021/03/30 02:16:04;;;;;;;5.50;3.22;;;11.50;64.90;;;;;;4989035;28;20041;-64
2021/03/30 02:18:38;;;;;;;5.93;3.30;;;11.40;64.30;;;;;;4984165;28;20041;-64
2021/03/30 02:21:06;;;;;;;5.03;3.20;;;11.40;64.30;;;;;;4988557;28;20473;-64
2021/03/30 02:23:36;;;;;;;7.93;3.58;;;11.40;64.20;;;;;;4985878;28;20033;-64
2021/03/30 02:26:06;;;;;;;5.43;3.25;;;11.40;64.30;;;;;;4987177;28;20034;-65
2021/03/30 02:28:50;;;;;;;6.28;3.35;;;11.40;64.50;;;;;;4986772;28;20045;-64
2021/03/30 02:31:23;;;;;;;5.78;2.70;;;11.30;64.40;;;;;;4984917;28;20034;-64
2021/03/30 02:33:51;;;;;;;6.00;3.22;;;11.30;64.60;;;;;;4984990;28;20030;-65
2021/03/30 02:36:20;;;;;;;6.95;3.42;;;11.30;64.80;;;;;;4987872;28;20402;-64
2021/03/30 02:38:48;;;;;;;6.82;3.63;;;11.20;65.30;;;;;;4983656;28;20034;-64
2021/03/30 02:41:16;;;;;;;6.03;3.08;;;11.20;65.30;;;;;;4986053;28;20464;-64
2021/03/30 02:43:43;;;;;;;7.80;3.60;;;11.10;65.20;;;;;;4981093;28;20046;-65
2021/03/30 02:46:10;;;;;;;6.35;3.10;;;11.10;65.70;;;;;;4987367;28;20450;-64
2021/03/30 02:48:37;;;;;;;10.23;3.88;;;11.10;65.90;;;;;;4988461;28;20034;-64
2021/03/30 02:51:05;;;;;;;7.20;3.85;;;11.00;65.90;;;;;;4984419;28;20030;-64
2021/03/30 02:53:32;;;;;;;9.27;3.22;;;11.00;66.20;;;;;;4984674;28;20042;-64
2021/03/30 02:56:01;;;;;;;6.70;3.65;;;11.00;66.20;;;;;;4984195;28;20047;-64
2021/03/30 02:58:26;;;;;;;5.70;3.53;;;10.90;66.40;;;;;;4988450;28;20064;-64
2021/03/30 03:00:54;;;;;;;7.30;3.90;;;10.90;66.40;;;;;;4983483;28;20034;-64
2021/03/30 03:03:20;;;;;;;5.55;3.50;;;10.90;66.40;;;;;;4991143;28;20452;-64
2021/03/30 03:05:46;;;;;;;7.07;3.63;;;10.90;65.90;;;;;;4986909;28;20050;-64
2021/03/30 03:08:12;;;;;;;7.63;3.65;;;10.90;65.50;;;;;;4985116;28;20092;-64
2021/03/30 03:10:39;;;;;;;6.40;3.70;;;10.90;66.30;;;;;;4986777;28;20485;-64
2021/03/30 03:13:11;;;;;;;7.18;3.42;;;10.90;65.70;;;;;;4985791;28;20042;-64
2021/03/30 03:15:38;;;;;;;6.03;4.18;;;10.90;65.90;;;;;;4983811;28;20056;-64
2021/03/30 03:18:04;;;;;;;6.38;3.70;;;10.80;66.00;;;;;;4985455;28;20030;-64
2021/03/30 03:20:30;;;;;;;7.70;3.60;;;10.80;66.10;;;;;;4984050;28;20057;-64
2021/03/30 03:22:56;;;;;;;8.48;4.18;;;10.70;66.10;;;;;;4985777;28;20049;-64
2021/03/30 03:25:22;;;;;;;5.30;3.55;;;10.70;66.40;;;;;;4983957;28;20037;-64
2021/03/30 03:27:47;;;;;;;8.48;3.65;;;10.70;66.60;;;;;;4985775;28;20041;-64
2021/03/30 03:30:14;;;;;;;7.45;3.85;;;10.60;66.90;;;;;;4987384;28;20030;-64
2021/03/30 03:32:41;;;;;;;5.97;3.50;;;10.60;67.00;;;;;;4987511;28;20041;-64
2021/03/30 03:35:13;;;;;;;6.10;3.15;;;10.60;67.00;;;;;;4985556;28;20156;-64
2021/03/30 03:37:43;;;;;;;6.03;3.55;;;10.50;66.90;;;;;;4982172;28;20026;-64
2021/03/30 03:40:10;;;;;;;5.32;3.13;;;10.50;67.00;;;;;;4985143;28;20042;-64
2021/03/30 03:42:37;;;;;;;6.53;3.58;;;10.50;67.10;;;;;;4984041;28;20041;-64
2021/03/30 03:45:05;;;;;;;8.38;3.67;;;10.50;66.50;;;;;;4986998;28;20101;-64
2021/03/30 03:47:31;;;;;;;9.10;4.20;;;10.50;66.50;;;;;;4999123;28;20104;-64
2021/03/30 03:49:57;;;;;;;8.70;4.28;;;10.50;66.50;;;;;;4987277;28;20481;-64
2021/03/30 03:52:24;;;;;;;3.70;3.10;;;10.50;66.90;;;;;;4987135;28;20034;-64
2021/03/30 03:54:54;;;;;;;6.07;3.95;;;10.50;66.30;;;;;;4989968;28;20563;-64
2021/03/30 03:57:24;;;;;;;5.50;3.42;;;10.50;66.40;;;;;;4994092;28;20084;-64
2021/03/30 03:59:50;;;;;;;6.32;3.58;;;10.50;66.70;;;;;;4993284;28;20042;-64
2021/03/30 04:02:25;;;;;;;5.22;3.70;;;10.40;66.70;;;;;;4985675;28;20039;-64
2021/03/30 04:05:27;;;;;;;5.90;3.22;;;10.40;66.10;;;;;;4984009;28;20034;-64
2021/03/30 04:07:58;;;;;;;7.70;3.80;;;10.40;66.10;;;;;;4999160;28;20501;-64
2021/03/30 04:10:27;;;;;;;4.72;3.25;;;10.40;66.80;;;;;;4988204;28;20037;-64
2021/03/30 04:12:54;;;;;;;8.90;3.80;;;10.40;66.70;;;;;;4990502;28;20076;-63
2021/03/30 04:15:21;;;;;;;7.07;3.97;;;10.40;66.80;;;;;;4985614;28;20038;-64
2021/03/30 04:17:47;;;;;;;6.78;3.55;;;10.40;67.50;;;;;;4987815;28;20053;-64
2021/03/30 04:20:15;;;;;;;8.50;4.20;;;10.40;66.40;;;;;;4984791;28;20026;-64
2021/03/30 04:22:46;;;;;;;6.65;3.70;;;10.30;66.80;;;;;;4990753;28;20033;-64
2021/03/30 04:25:11;;;;;;;7.90;3.90;;;10.30;67.10;;;;;;4986604;28;20053;-64
2021/03/30 04:27:37;;;;;;;6.60;3.75;;;10.30;66.20;;;;;;4992388;28;20553;-64
2021/03/30 04:30:04;;;;;;;4.78;3.42;;;10.30;65.90;;;;;;4989141;28;20776;-64
2021/03/30 04:32:29;;;;;;;5.03;3.60;;;10.20;66.50;;;;;;4991298;28;20496;-64
2021/03/30 04:34:55;;;;;;;6.75;4.05;;;10.20;67.00;;;;;;4986806;28;20069;-64
2021/03/30 04:37:21;;;;;;;6.90;3.92;;;10.20;67.20;;;;;;4989750;28;20033;-65
2021/03/30 04:39:47;;;;;;;6.65;3.78;;;10.20;67.20;;;;;;4987484;28;20030;-64
2021/03/30 04:42:12;;;;;;;6.85;3.78;;;10.10;67.30;;;;;;4986783;28;20030;-64
2021/03/30 04:44:38;;;;;;;6.28;3.13;;;10.10;67.30;;;;;;4991064;28;20096;-64
2021/03/30 04:47:04;;;;;;;4.68;3.42;;;10.10;67.30;;;;;;4990035;28;20030;-64
2021/03/30 04:49:30;;;;;;;6.10;3.65;;;10.10;67.40;;;;;;4990173;28;20080;-64
2021/03/30 04:51:56;;;;;;;7.00;3.70;;;10.10;67.40;;;;;;4988725;28;20030;-64
2021/03/30 04:54:22;;;;;;;5.07;3.45;;;10.10;67.30;;;;;;4991940;28;20475;-64
2021/03/30 04:56:48;;;;;;;8.55;3.78;;;10.00;67.70;;;;;;4995736;28;20037;-64
2021/03/30 04:59:14;;;;;;;6.22;3.75;;;10.00;68.00;;;;;;4992856;28;20034;-64
2021/03/30 05:01:39;;;;;;;5.57;3.40;;;10.00;67.80;;;;;;4990920;28;20107;-64
2021/03/30 05:04:05;;;;;;;6.25;3.38;;;9.90;67.60;;;;;;4995274;28;20042;-64
2021/03/30 05:06:31;;;;;;;7.07;3.15;;;9.90;68.10;;;;;;4990807;28;20429;-63
2021/03/30 05:08:57;;;;;;;4.93;3.65;;;9.80;67.70;;;;;;4995043;28;20065;-64
2021/03/30 05:11:23;;;;;;;7.22;3.35;;;9.80;67.10;;;;;;4991063;28;20065;-64
2021/03/30 05:13:49;;;;;;;6.47;3.35;;;9.70;67.10;;;;;;4990200;28;20129;-64
2021/03/30 05:16:14;;;;;;;7.63;3.45;;;9.70;67.30;;;;;;4994255;28;20026;-64
2021/03/30 05:18:41;;;;;;;7.07;3.85;;;9.70;66.30;;;;;;4996415;28;20026;-64
2021/03/30 05:21:07;;;;;;;5.47;3.50;;;9.70;66.80;;;;;;4993526;28;20061;-64
2021/03/30 05:23:33;;;;;;;8.68;3.72;;;9.70;67.10;;;;;;4992476;28;20030;-64
2021/03/30 05:25:59;;;;;;;6.97;3.70;;;9.80;67.80;;;;;;4993677;28;20806;-64
2021/03/30 05:28:24;;;;;;;6.93;3.78;;;9.80;67.80;;;;;;4990266;28;20062;-64
2021/03/30 05:30:50;;;;;;;9.88;4.65;;;9.90;68.40;;;;;;4995526;28;20132;-64
2021/03/30 05:33:16;;;;;;;6.53;3.70;;;9.90;68.10;;;;;;4990951;28;20878;-64
2021/03/30 05:35:42;;;;;;;5.82;3.72;;;9.90;68.50;;;;;;4989851;28;20029;-64
2021/03/30 05:38:07;;;;;;;5.88;3.67;;;10.00;68.50;;;;;;4996285;28;20776;-64
2021/03/30 05:40:33;;;;;;;6.00;3.70;;;10.00;67.80;;;;;;4989691;28;20036;-64
2021/03/30 05:42:59;;;;;;;5.22;3.63;;;10.10;67.00;;;;;;4994152;28;20528;-64
2021/03/30 05:45:25;;;;;;;6.07;3.72;;;10.20;67.00;;;;;;4990756;28;20038;-64
2021/03/30 05:47:53;;;;;;;5.20;3.72;;;10.30;67.00;;;;;;4997621;28;20033;-64
2021/03/30 05:50:22;;;;;;;8.15;3.97;;;10.40;67.50;;;;;;4995042;28;20631;-64
2021/03/30 05:55:26;;;;;;;10.25;4.00;;;10.60;66.00;;;;;;4988773;28;20398;-64
2021/03/30 05:57:57;;;;;;;7.00;4.30;;;10.70;65.40;;;;;;4993009;28;20526;-64
2021/03/30 06:00:25;;;;;;;6.13;4.10;;;10.90;64.70;;;;;;4990536;28;20045;-64
2021/03/30 06:02:54;;;;;;;8.88;4.38;;;11.20;63.40;;;;;;4990379;28;20042;-64
2021/03/30 06:05:20;;;;;;;7.63;3.85;;;11.40;61.30;;;;;;4992633;28;20038;-64
2021/03/30 06:07:45;;;;;;;9.27;4.60;;;11.70;59.90;;;;;;4996185;28;20041;-64
2021/03/30 06:10:17;;;;;;;10.38;4.82;;;12.00;59.20;;;;;;4992209;28;20048;-64
2021/03/30 06:12:43;;;;;;;12.57;5.90;;;12.30;58.10;;;;;;4990115;28;20044;-64
2021/03/30 06:15:11;;;;;;;7.53;4.25;;;12.60;57.20;;;;;;4988269;28;20033;-59
2021/03/30 06:17:44;;;;;;;8.68;4.38;;;12.80;56.10;;;;;;4995029;28;20112;-60
2021/03/30 06:20:13;;;;;;;6.40;4.05;;;13.00;55.90;;;;;;4987784;28;20066;-60
2021/03/30 06:22:56;;;;;;;7.00;4.18;;;13.00;55.30;;;;;;4985285;28;20096;-60
2021/03/30 06:25:45;;;;;;;6.72;4.10;;;12.90;55.70;;;;;;4992735;28;20046;-66
2021/03/30 06:28:20;;;;;;;8.00;4.32;;;12.90;56.20;;;;;;4992083;28;20128;-60
2021/03/30 06:31:04;;;;;;;8.63;4.50;;;12.90;56.10;;;;;;4988355;28;20118;-59
2021/03/30 06:33:32;;;;;;;10.77;6.13;;;12.90;56.40;;;;;;4992802;28;20042;-60
2021/03/30 06:36:12;;;;;;;13.68;5.78;;;12.90;56.20;;;;;;4989287;28;20673;-59
2021/03/30 06:38:58;;;;;;;8.10;4.68;;;13.00;56.30;;;;;;4991168;28;20053;-59
2021/03/30 06:41:32;;;;;;;9.65;4.55;;;13.00;56.10;;;;;;4991928;28;20160;-59
2021/03/30 06:44:26;;;;;;;8.25;4.03;;;13.10;56.30;;;;;;4989807;28;20138;-59
2021/03/30 06:46:57;;;;;;;10.55;5.55;;;13.20;56.30;;;;;;4993022;28;20034;-59
2021/03/30 06:49:24;;;;;;;8.55;5.00;;;13.30;55.70;;;;;;4986286;28;20042;-59
2021/03/30 06:51:50;;;;;;;10.75;5.97;;;13.40;55.00;;;;;;4991308;28;20088;-59
2021/03/30 06:54:16;;;;;;;7.28;4.90;;;13.50;55.70;;;;;;4989243;28;20119;-60
2021/03/30 06:56:59;;;;;;;9.88;5.70;;;13.60;55.40;;;;;;4992516;28;20030;-60
2021/03/30 06:59:25;;;;;;;9.57;5.28;;;13.70;54.70;;;;;;4992628;28;20077;-60
2021/03/30 07:01:55;;;;;;;10.18;5.30;;;14.00;54.40;;;;;;4985586;28;20080;-59
2021/03/30 07:04:20;;;;;;;9.20;5.90;;;14.40;52.70;;;;;;4992561;28;20037;-60
2021/03/30 07:06:51;;;;;;;10.52;5.40;;;15.30;50.60;;;;;;4990470;28;20491;-60
2021/03/30 07:09:17;;;;;;;10.77;4.75;;;16.10;48.70;;;;;;4996344;28;20048;-60
2021/03/30 07:11:44;;;;;;;13.93;5.85;;;16.90;47.60;;;;;;4991841;28;20029;-60
2021/03/30 07:14:09;;;;;;;10.30;5.45;;;17.80;45.20;;;;;;4992351;28;20137;-59
2021/03/30 07:16:45;;;;;;;9.10;5.70;;;18.50;43.30;;;;;;4987041;28;20034;-60
2021/03/30 07:19:11;;;;;;;9.68;5.78;;;19.30;42.00;;;;;;4985748;28;20628;-60
2021/03/30 07:21:52;;;;;;;10.10;5.88;;;20.10;40.70;;;;;;4991751;28;20784;-59
2021/03/30 07:24:22;;;;;;;13.15;6.13;;;20.30;39.10;;;;;;4988418;28;20428;-60
2021/03/30 07:26:58;;;;;;;11.15;5.90;;;20.00;39.90;;;;;;4988808;28;20042;-60
2021/03/30 07:29:29;;;;;;;12.10;6.07;;;19.60;41.90;;;;;;4989568;28;20034;-60
2021/03/30 07:32:12;;;;;;;10.38;6.30;;;19.40;41.60;;;;;;4986092;28;20749;-60
2021/03/30 07:35:03;;;;;;;14.38;6.63;;;19.30;40.90;;;;;;4987123;28;20038;-60
2021/03/30 07:37:54;;;;;;;11.38;6.78;;;19.50;41.40;;;;;;4989115;28;20141;-60
2021/03/30 07:40:21;;;;;;;13.63;7.47;;;19.90;40.10;;;;;;4988556;28;20041;-61
2021/03/30 07:42:48;;;;;;;10.85;5.82;;;20.10;40.60;;;;;;4991637;28;20482;-60
2021/03/30 07:45:18;;;;;;;13.30;6.30;;;20.50;40.40;;;;;;4987880;28;20077;-60
2021/03/30 07:47:45;;;;;;;16.63;7.05;;;21.00;39.80;;;;;;4994305;28;20038;-60
2021/03/30 07:50:11;;;;;;;17.85;7.43;;;21.30;38.00;;;;;;4988718;28;20042;-61
2021/03/30 07:52:48;;;;;;;8.48;5.85;;;21.40;38.00;;;;;;4987745;28;20394;-60
2021/03/30 07:55:28;;;;;;;10.68;7.03;;;21.70;38.10;;;;;;4983591;28;20030;-60
2021/03/30 07:58:01;;;;;;;12.95;8.48;;;22.50;36.10;;;;;;4987949;28;20092;-60
2021/03/30 08:00:32;;;;;;;12.15;7.10;;;23.40;34.60;;;;;;4988676;28;20037;-60
2021/03/30 08:03:05;;;;;;;9.88;6.75;;;24.10;33.80;;;;;;4989526;28;20029;-58
2021/03/30 08:05:31;;;;;;;9.85;6.68;;;24.50;32.40;;;;;;4989270;28;20030;-60
2021/03/30 08:07:57;;;;;;;13.15;6.80;;;24.30;31.40;;;;;;4990321;28;20030;-60
2021/03/30 08:10:34;;;;;;;12.65;7.00;;;24.10;32.20;;;;;;4991670;28;20387;-58
2021/03/30 08:13:30;;;;;;;11.20;7.00;;;24.00;32.60;;;;;;4987247;28;20030;-60
2021/03/30 08:15:57;;;;;;;10.98;7.03;;;23.90;31.40;;;;;;4989829;28;20029;-58
2021/03/30 08:18:25;;;;;;;9.77;6.88;;;23.70;31.70;;;;;;4986306;28;20114;-60
2021/03/30 08:21:00;;;;;;;9.55;6.53;;;23.50;32.60;;;;;;4990851;28;20958;-60
2021/03/30 08:23:28;;;;;;;12.00;6.80;;;23.50;32.60;;;;;;4986896;28;20811;-60
2021/03/30 08:26:15;;;;;;;9.98;6.25;;;23.60;32.50;;;;;;4986383;28;20049;-62
2021/03/30 08:29:14;;;;;;;12.88;7.05;;;23.80;33.20;;;;;;4995567;28;20190;-60
2021/03/30 08:31:51;;;;;;;12.23;7.50;;;24.00;32.10;;;;;;4989920;28;20053;-60
2021/03/30 08:34:22;;;;;;;15.32;7.75;;;23.80;31.70;;;;;;4993011;28;20034;-60
2021/03/30 08:36:54;;;;;;;13.90;7.95;;;23.40;32.60;;;;;;4992361;28;20482;-60
2021/03/30 08:39:20;;;;;;;13.68;7.50;;;23.00;33.60;;;;;;4991175;28;20038;-60
2021/03/30 08:41:46;;;;;;;15.25;7.97;;;22.40;33.90;;;;;;4990357;28;20028;-60
2021/03/30 08:44:23;;;;;;;11.65;6.93;;;22.10;35.10;;;;;;4993760;28;20030;-59
2021/03/30 08:46:56;;;;;;;12.32;8.30;;;22.00;36.00;;;;;;4987724;28;20049;-60
2021/03/30 08:49:36;;;;;;;11.40;6.82;;;22.50;34.50;;;;;;5006789;28;20038;-60
2021/03/30 08:52:09;;;;;;;12.27;7.80;;;23.50;32.40;;;;;;4995573;28;20034;-61
2021/03/30 08:54:47;;;;;;;10.25;6.30;;;24.30;31.60;;;;;;4992061;28;20030;-60
2021/03/30 08:57:19;;;;;;;12.35;7.07;;;24.80;31.40;;;;;;4992917;28;20030;-58
2021/03/30 08:59:45;;;;;;;10.57;6.50;;;25.10;31.20;;;;;;4987593;28;20034;-60
2021/03/30 09:02:11;;;;;;;14.25;7.38;;;25.60;30.30;;;;;;5009941;28;20038;-58
2021/03/30 09:04:44;;;;;;;12.55;6.90;;;25.70;30.40;;;;;;4989922;28;20542;-58
2021/03/30 09:07:10;;;;;;;10.63;6.97;;;25.70;30.40;;;;;;4990667;28;20112;-60
2021/03/30 09:09:37;;;;;;;11.75;6.72;;;25.80;30.00;;;;;;4990797;28;20639;-60
2021/03/30 09:12:18;;;;;;;15.55;7.20;;;25.80;30.30;;;;;;4990540;28;20045;-58
2021/03/30 09:14:58;;;;;;;12.00;7.00;;;25.80;31.00;;;;;;4994457;28;20128;-58
2021/03/30 09:17:24;;;;;;;9.43;6.78;;;25.80;30.50;;;;;;4988309;28;20060;-61
2021/03/30 09:19:51;;;;;;;11.13;6.80;;;25.80;31.00;;;;;;4989553;28;20033;-61
2021/03/30 09:22:25;;;;;;;13.57;6.47;;;25.80;31.30;;;;;;4990629;28;20034;-60
2021/03/30 09:25:25;;;;;;;13.05;7.40;;;25.80;31.30;;;;;;4989214;28;20038;-60
2021/03/30 09:27:51;;;;;;;9.20;6.85;;;26.00;30.80;;;;;;4990963;28;20049;-58
2021/03/30 09:30:18;;;;;;;10.65;6.82;;;26.10;31.00;;;;;;4993317;28;20037;-59
2021/03/30 09:32:46;;;;;;;10.65;7.05;;;25.60;31.20;;;;;;4987571;28;20030;-60
2021/03/30 09:35:13;;;;;;;10.57;6.45;;;25.20;31.50;;;;;;4990471;28;20038;-58
2021/03/30 09:37:49;;;;;;;13.10;6.45;;;24.60;32.40;;;;;;4993868;28;20038;-58
2021/03/30 09:40:28;;;;;;;14.60;8.00;;;24.30;33.50;;;;;;4988715;28;20065;-59
2021/03/30 09:42:54;;;;;;;9.40;6.95;;;23.90;34.20;;;;;;4989627;28;20042;-60
2021/03/30 09:45:29;;;;;;;13.27;7.50;;;23.60;35.50;;;;;;4985498;28;20117;-60
2021/03/30 09:47:56;;;;;;;17.60;7.60;;;23.80;34.80;;;;;;4989089;28;20069;-58
2021/03/30 09:50:25;;;;;;;13.43;6.93;;;24.30;34.00;;;;;;4992487;28;20858;-58
2021/03/30 09:52:51;;;;;;;10.07;7.00;;;24.60;34.30;;;;;;4991713;28;20039;-60
2021/03/30 09:55:33;;;;;;;11.38;6.60;;;24.60;33.40;;;;;;4987869;28;20799;-60
2021/03/30 09:58:03;;;;;;;12.32;7.03;;;24.50;33.60;;;;;;4990086;28;20115;-58
2021/03/30 10:00:31;;;;;;;10.93;7.05;;;24.70;32.70;;;;;;4991199;28;20503;-58
2021/03/30 10:02:57;;;;;;;14.27;7.45;;;24.70;32.20;;;;;;4996963;28;20497;-60
2021/03/30 10:05:23;;;;;;;13.95;7.28;;;24.30;33.10;;;;;;4995691;28;20485;-61
2021/03/30 10:07:49;;;;;;;13.85;6.97;;;24.00;34.10;;;;;;4989384;28;20084;-58
2021/03/30 10:10:15;;;;;;;12.15;7.72;;;24.10;33.70;;;;;;4991067;28;20041;-58
2021/03/30 10:12:49;;;;;;;24.35;12.15;;;24.60;33.20;;;;;;4992279;28;20505;-60
2021/03/30 10:15:14;;;;;;;32.53;19.70;;;24.90;33.20;;;;;;4992559;28;20121;-58
2021/03/30 10:17:41;;;;;;;32.53;20.83;;;24.80;33.00;;;;;;4988796;28;20026;-60
2021/03/30 10:20:12;;;;;;;29.90;17.67;;;24.70;33.70;;;;;;4990838;28;20688;-58
2021/03/30 10:22:49;;;;;;;28.65;15.40;;;24.10;35.10;;;;;;4990244;28;20037;-58
2021/03/30 10:25:29;;;;;;;18.73;10.13;;;23.70;36.20;;;;;;4989482;28;20026;-60
2021/03/30 10:27:58;;;;;;;13.18;8.23;;;23.30;37.90;;;;;;4992116;28;20139;-60
2021/03/30 10:30:34;;;;;;;12.98;7.75;;;23.10;39.00;;;;;;4989911;28;20037;-60
2021/03/30 10:33:05;;;;;;;;;;;22.70;39.20;;;;;;4990937;28;20671;-60
2021/03/30 10:35:31;;;;;;;18.02;9.95;;;22.50;39.10;;;;;;4987047;28;19929;-60
2021/03/30 10:37:57;;;;;;;16.67;9.88;;;22.20;41.30;;;;;;4991783;28;20026;-60
2021/03/30 10:40:34;;;;;;;23.58;10.82;;;22.00;40.70;;;;;;4992594;28;20049;-60
2021/03/30 10:43:20;;;;;;;27.48;15.48;;;21.80;41.40;;;;;;4988518;28;20044;-60
2021/03/30 10:45:47;;;;;;;20.65;11.60;;;21.60;41.30;;;;;;4988238;28;20037;-60
2021/03/30 10:48:13;;;;;;;20.58;11.57;;;21.50;40.80;;;;;;4993691;28;20022;-60
2021/03/30 10:50:39;;;;;;;16.75;8.85;;;21.50;41.30;;;;;;4986004;28;20037;-60
2021/03/30 10:53:06;;;;;;;18.60;9.38;;;21.50;41.40;;;;;;4985805;28;20205;-61
2021/03/30 10:55:33;;;;;;;22.38;11.63;;;21.40;41.10;;;;;;4987728;28;20041;-61
2021/03/30 10:57:59;;;;;;;16.90;8.95;;;21.30;41.60;;;;;;4986296;28;20044;-61
2021/03/30 11:00:25;;;;;;;16.02;9.27;;;21.20;41.40;;;;;;4988730;28;20042;-61
2021/03/30 11:02:51;;;;;;;15.77;7.97;;;21.10;43.10;;;;;;4988698;28;20030;-61
2021/03/30 11:05:17;;;;;;;14.80;8.13;;;21.00;41.90;;;;;;4994983;28;20042;-61
2021/03/30 11:07:43;;;;;;;15.77;7.72;;;21.10;42.60;;;;;;4986130;28;20888;-61
2021/03/30 11:10:11;;;;;;;15.13;8.68;;;21.10;42.60;;;;;;4991644;28;20034;-61
2021/03/30 11:12:38;;;;;;;12.50;7.20;;;21.20;42.20;;;;;;4990562;28;20033;-61
2021/03/30 11:15:05;;;;;;;13.57;7.95;;;21.10;42.60;;;;;;4986206;28;20105;-59
2021/03/30 11:17:31;;;;;;;12.73;6.57;;;21.00;42.80;;;;;;4989145;28;20041;-61
2021/03/30 11:19:57;;;;;;;18.23;9.00;;;20.90;43.20;;;;;;4987580;28;20042;-60
2021/03/30 11:22:22;;;;;;;13.00;6.43;;;21.00;43.10;;;;;;4986284;28;20030;-61
2021/03/30 11:24:52;;;;;;;15.18;7.80;;;21.00;43.20;;;;;;4994156;28;20042;-61
2021/03/30 11:27:18;;;;;;;13.07;7.07;;;21.00;42.80;;;;;;4990233;28;20050;-59
2021/03/30 11:29:50;;;;;;;16.50;7.40;;;21.10;43.10;;;;;;4986119;28;20053;-64
2021/03/30 11:39:55;;;;;;;12.98;7.03;;;21.40;43.30;;;;;;4992368;28;20041;-59
2021/03/30 11:42:21;;;;;;;17.95;9.00;;;21.40;44.00;;;;;;4988295;28;20025;-61
2021/03/30 11:44:46;;;;;;;20.73;11.60;;;21.50;43.50;;;;;;4985275;28;20072;-61
2021/03/30 11:47:13;;;;;;;18.40;11.02;;;21.50;43.50;;;;;;4990789;28;20117;-61
2021/03/30 11:49:40;;;;;;;14.90;9.00;;;21.60;43.00;;;;;;4986753;28;20041;-61
2021/03/30 11:52:06;;;;;;;15.88;7.93;;;21.50;43.60;;;;;;4989033;28;20169;-59
2021/03/30 11:54:33;;;;;;;13.63;7.72;;;21.60;43.10;;;;;;4993521;28;20570;-59
2021/03/30 11:56:59;;;;;;;16.35;8.65;;;21.70;43.70;;;;;;4992822;28;20577;-59
2021/03/30 11:59:25;;;;;;;15.73;7.53;;;21.70;42.80;;;;;;4986456;28;20030;-59
2021/03/30 12:01:51;;;;;;;17.30;8.25;;;21.60;42.60;;;;;;4991508;28;20037;-61
2021/03/30 12:04:17;;;;;;;14.40;7.85;;;21.60;43.30;;;;;;4992358;28;20037;-61
2021/03/30 12:06:43;;;;;;;14.48;7.72;;;21.60;43.60;;;;;;4990679;28;20091;-61
2021/03/30 12:09:08;;;;;;;17.13;7.15;;;21.60;43.00;;;;;;4996196;28;20025;-66
2021/03/30 12:11:34;;;;;;;10.57;6.55;;;21.60;43.00;;;;;;4988972;28;20150;-61
2021/03/30 12:14:00;;;;;;;12.00;6.30;;;21.60;43.00;;;;;;4995135;28;20033;-61
2021/03/30 12:16:27;;;;;;;12.90;6.97;;;21.60;43.30;;;;;;4992613;28;20117;-61
2021/03/30 12:18:54;;;;;;;9.75;5.70;;;21.60;43.50;;;;;;4991563;28;20129;-61
2021/03/30 12:21:20;;;;;;;10.05;6.03;;;21.70;44.20;;;;;;4992968;28;20545;-61
2021/03/30 12:23:46;;;;;;;9.70;6.15;;;21.70;43.00;;;;;;4988875;28;20042;-61
2021/03/30 12:26:12;;;;;;;11.52;6.55;;;21.70;43.00;;;;;;4992959;28;20088;-59
2021/03/30 12:28:38;;;;;;;11.35;7.07;;;21.60;43.30;;;;;;4991082;28;20038;-59
2021/03/30 12:31:04;;;;;;;12.82;7.32;;;21.70;42.70;;;;;;4994003;28;20037;-59
2021/03/30 12:33:30;;;;;;;10.70;6.43;;;21.70;44.20;;;;;;4995732;28;20045;-59
2021/03/30 12:35:55;;;;;;;12.05;6.07;;;21.80;43.30;;;;;;4990277;28;20038;-59
2021/03/30 12:38:21;;;;;;;10.90;6.63;;;21.80;43.10;;;;;;4987398;28;20810;-59
2021/03/30 12:40:48;;;;;;;14.20;7.25;;;21.80;42.90;;;;;;4991770;28;20034;-59
2021/03/30 12:43:13;;;;;;;16.33;8.57;;;21.90;43.10;;;;;;4989357;28;20026;-59
2021/03/30 12:45:39;;;;;;;13.90;7.35;;;21.90;43.10;;;;;;4995432;28;20046;-59
2021/03/30 12:48:06;;;;;;;16.08;7.57;;;21.90;43.40;;;;;;4991056;28;20033;-59
2021/03/30 12:50:33;;;;;;;11.93;7.30;;;21.90;43.20;;;;;;4992041;28;20446;-61
2021/03/30 12:53:02;;;;;;;16.35;8.38;;;21.90;42.60;;;;;;4996366;28;20112;-59
2021/03/30 12:55:29;;;;;;;21.55;11.93;;;21.80;43.60;;;;;;4997426;28;20034;-59
2021/03/30 12:57:55;;;;;;;22.10;11.73;;;21.90;42.90;;;;;;4991885;28;20061;-59
2021/03/30 13:00:21;;;;;;;20.70;12.35;;;21.90;43.30;;;;;;4989651;28;20042;-59
2021/03/30 13:02:49;;;;;;;21.13;12.20;;;21.90;44.00;;;;;;4993952;28;20025;-59
2021/03/30 13:05:14;;;;;;;20.65;11.65;;;22.00;43.40;;;;;;4993638;28;20034;-61
2021/03/30 13:07:40;;;;;;;17.60;10.20;;;21.90;43.30;;;;;;4991033;28;20044;-60